Time;durP1;ratioP1;P1;durP2;ratioP2;P2;SDS_P1;SDS_P2;PMS_P1;PMS_P2;Temp;Humidity;BMP_temperature;BMP_pressure;BME280_temperature;BME280_humidity;BME280_pressure;Samples;Min_cycle;Max_cycle;Signal;HPM_P1;HPM_P2
2022/03/11 00:01:44;;;;;;;14.03;8.37;;;;;;;;;;5006794;28;20433;-79
2022/03/11 00:04:10;;;;;;;14.17;8.40;;;;;;;;;;5039155;28;20416;-78
2022/03/11 00:06:36;;;;;;;14.13;8.70;;;;;;;;;;5041696;28;20447;-79
2022/03/11 00:09:02;;;;;;;13.40;10.10;;;;;;;;;;5024274;28;20432;-78
2022/03/11 00:11:28;;;;;;;12.70;8.57;;;;;;;;;;5055604;28;20566;-78
2022/03/11 00:13:55;;;;;;;13.40;8.43;;;;;;;;;;5015224;28;20732;-79
2022/03/11 00:17:44;;;;;;;12.93;9.07;;;;;;;;;;5173513;27;20990;-77
2022/03/11 00:20:10;;;;;;;16.80;9.43;;;;;;;;;;5170752;27;20181;-76
2022/03/11 00:22:36;;;;;;;11.13;7.95;;;;;;;;;;5192125;27;20191;-77
2022/03/11 00:25:02;;;;;;;11.77;7.25;;;;;;;;;;5191308;27;20191;-77
2022/03/11 00:27:28;;;;;;;14.45;8.50;;;;;;;;;;5112061;27;20253;-76
2022/03/11 00:29:54;;;;;;;12.50;8.25;;;;;;;;;;5038199;28;20186;-80
2022/03/11 00:32:20;;;;;;;17.07;8.43;;;;;;;;;;4995869;28;20206;-77
2022/03/11 00:34:46;;;;;;;11.15;7.72;;;;;;;;;;5008751;28;20480;-78
2022/03/11 00:37:12;;;;;;;12.47;7.60;;;;;;;;;;4965795;28;20269;-78
2022/03/11 00:42:16;;;;;;;11.23;7.72;;;;;;;;;;5192871;27;20827;-78
2022/03/11 00:44:42;;;;;;;10.73;7.70;;;;;;;;;;5187709;27;20188;-79
2022/03/11 00:47:09;;;;;;;12.77;8.18;;;;;;;;;;5177321;27;20438;-77
2022/03/11 00:49:36;;;;;;;12.63;8.30;;;;;;;;;;5151447;27;20219;-78
2022/03/11 00:52:02;;;;;;;10.98;7.03;;;;;;;;;;5144772;27;20269;-76
2022/03/11 00:54:28;;;;;;;12.73;7.70;;;;;;;;;;5149318;27;20181;-79
2022/03/11 00:56:54;;;;;;;14.33;7.67;;;;;;;;;;5150469;27;20217;-75
2022/03/11 00:59:20;;;;;;;13.90;7.90;;;;;;;;;;5101766;28;20479;-79
2022/03/11 01:01:47;;;;;;;11.30;7.50;;;;;;;;;;5039219;28;20485;-77
2022/03/11 01:06:50;;;;;;;10.23;7.60;;;;;;;;;;5139301;27;20504;-76
2022/03/11 01:09:16;;;;;;;15.23;7.43;;;;;;;;;;5145716;27;20190;-77
2022/03/11 01:11:42;;;;;;;13.23;8.23;;;;;;;;;;5150046;27;20200;-79
2022/03/11 01:14:08;;;;;;;11.63;7.90;;;;;;;;;;5129485;27;20440;-76
2022/03/11 01:16:34;;;;;;;10.45;7.30;;;;;;;;;;5114007;28;20664;-78
2022/03/11 01:19:00;;;;;;;11.50;8.18;;;;;;;;;;5101320;28;20231;-78
2022/03/11 01:21:26;;;;;;;11.90;6.82;;;;;;;;;;5103412;28;20202;-79
2022/03/11 01:23:53;;;;;;;8.97;6.23;;;;;;;;;;5105084;27;20199;-79
2022/03/11 01:26:19;;;;;;;11.05;6.63;;;;;;;;;;5060446;28;20499;-77
2022/03/11 01:32:01;;;;;;;9.90;6.57;;;;;;;;;;5192881;27;20492;-77
2022/03/11 01:34:27;;;;;;;10.10;7.22;;;;;;;;;;5187750;27;20264;-77
2022/03/11 01:36:53;;;;;;;9.70;7.00;;;;;;;;;;5172597;27;20298;-76
2022/03/11 01:39:20;;;;;;;11.87;7.30;;;;;;;;;;5156014;27;20225;-78
2022/03/11 01:41:46;;;;;;;9.18;6.75;;;;;;;;;;5107567;28;20518;-79
2022/03/11 01:44:12;;;;;;;11.45;6.25;;;;;;;;;;5072528;28;20676;-79
2022/03/11 01:46:38;;;;;;;10.15;6.53;;;;;;;;;;5082987;28;20222;-80
2022/03/11 01:49:05;;;;;;;10.85;6.72;;;;;;;;;;5081464;28;20192;-76
2022/03/11 01:51:32;;;;;;;13.23;7.05;;;;;;;;;;4961769;28;20662;-76
2022/03/11 01:56:38;;;;;;;13.93;7.35;;;;;;;;;;5182779;27;20491;-77
2022/03/11 01:59:05;;;;;;;10.95;6.50;;;;;;;;;;5187892;27;20184;-75
2022/03/11 02:01:31;;;;;;;13.88;7.05;;;;;;;;;;5192096;27;20196;-78
2022/03/11 02:03:57;;;;;;;12.43;7.43;;;;;;;;;;5190919;27;20252;-77
2022/03/11 02:06:23;;;;;;;16.83;7.93;;;;;;;;;;5175547;27;20213;-78
2022/03/11 02:08:50;;;;;;;9.75;6.80;;;;;;;;;;5162791;27;20177;-76
2022/03/11 02:11:16;;;;;;;10.30;7.00;;;;;;;;;;5171038;27;20201;-78
2022/03/11 02:13:43;;;;;;;13.43;6.60;;;;;;;;;;5137684;27;20211;-78
2022/03/11 02:16:11;;;;;;;11.98;7.72;;;;;;;;;;4960262;28;20233;-75
2022/03/11 02:21:10;;;;;;;11.30;7.30;;;;;;;;;;5192947;27;20286;-78
2022/03/11 02:23:46;;;;;;;10.00;7.03;;;;;;;;;;5187919;27;20187;-78
2022/03/11 02:26:13;;;;;;;9.82;6.90;;;;;;;;;;5166702;27;20608;-78
2022/03/11 02:28:39;;;;;;;9.57;6.25;;;;;;;;;;5131063;27;20642;-79
2022/03/11 02:31:05;;;;;;;9.38;6.72;;;;;;;;;;5121055;27;20192;-76
2022/03/11 02:33:31;;;;;;;11.90;6.72;;;;;;;;;;5132650;27;20598;-78
2022/03/11 02:35:57;;;;;;;12.35;7.43;;;;;;;;;;5130599;27;20221;-76
2022/03/11 02:38:23;;;;;;;9.07;6.33;;;;;;;;;;5056617;28;20197;-79
2022/03/11 02:40:49;;;;;;;10.50;7.17;;;;;;;;;;5005813;28;20471;-76
2022/03/11 02:45:53;;;;;;;11.45;6.70;;;;;;;;;;5189419;27;20502;-77
2022/03/11 02:48:19;;;;;;;12.07;6.78;;;;;;;;;;5187710;27;20239;-79
2022/03/11 02:50:45;;;;;;;9.77;6.93;;;;;;;;;;5191817;27;20257;-77
2022/03/11 02:53:11;;;;;;;10.30;6.25;;;;;;;;;;5191520;27;20633;-78
2022/03/11 02:55:37;;;;;;;13.50;7.63;;;;;;;;;;5161262;27;20192;-77
2022/03/11 02:58:03;;;;;;;13.65;8.20;;;;;;;;;;5109001;28;20192;-78
2022/03/11 03:00:29;;;;;;;8.50;6.78;;;;;;;;;;5134771;27;20194;-78
2022/03/11 03:02:56;;;;;;;10.13;6.88;;;;;;;;;;5114883;28;20206;-77
2022/03/11 03:05:22;;;;;;;14.15;7.15;;;;;;;;;;5118492;28;20267;-78
2022/03/11 03:07:48;;;;;;;12.25;7.60;;;;;;;;;;5034248;28;20260;-75
2022/03/11 03:11:52;;;;;;;11.10;6.53;;;;;;;;;;5193066;27;20594;-78
2022/03/11 03:14:19;;;;;;;12.45;7.82;;;;;;;;;;5187961;27;20192;-76
2022/03/11 03:16:44;;;;;;;16.48;8.00;;;;;;;;;;5180820;27;20653;-78
2022/03/11 03:19:11;;;;;;;13.40;7.70;;;;;;;;;;5170568;27;20190;-79
2022/03/11 03:21:37;;;;;;;12.00;7.85;;;;;;;;;;5153356;27;20455;-78
2022/03/11 03:24:03;;;;;;;11.77;7.93;;;;;;;;;;5126811;28;20179;-77
2022/03/11 03:26:29;;;;;;;12.07;8.13;;;;;;;;;;5126737;27;20211;-76
2022/03/11 03:28:55;;;;;;;15.07;9.17;;;;;;;;;;5045914;28;20264;-78
2022/03/11 03:31:21;;;;;;;13.07;7.93;;;;;;;;;;4943670;28;20572;-78
2022/03/11 03:36:49;;;;;;;15.07;7.55;;;;;;;;;;5180938;27;20506;-76
2022/03/11 03:39:15;;;;;;;12.82;8.38;;;;;;;;;;5187652;27;20531;-78
2022/03/11 03:41:41;;;;;;;13.60;7.03;;;;;;;;;;5192118;27;20192;-77
2022/03/11 03:44:07;;;;;;;13.90;7.80;;;;;;;;;;5191331;27;20421;-78
2022/03/11 03:46:33;;;;;;;12.97;7.87;;;;;;;;;;5132637;27;20767;-76
2022/03/11 03:48:59;;;;;;;10.60;6.77;;;;;;;;;;5106302;28;20430;-76
2022/03/11 03:51:25;;;;;;;11.13;6.90;;;;;;;;;;5091659;28;20430;-76
2022/03/11 03:53:51;;;;;;;13.40;8.20;;;;;;;;;;5080155;28;20637;-75
2022/03/11 03:56:17;;;;;;;11.60;8.13;;;;;;;;;;5036616;28;20313;-78
2022/03/11 03:58:43;;;;;;;13.60;6.97;;;;;;;;;;4998372;28;20811;-78
2022/03/11 04:02:48;;;;;;;12.85;7.03;;;;;;;;;;5192942;27;20810;-79
2022/03/11 04:05:15;;;;;;;13.30;8.30;;;;;;;;;;5170401;27;20260;-77
2022/03/11 04:07:42;;;;;;;11.88;7.20;;;;;;;;;;5173383;27;20231;-77
2022/03/11 04:10:09;;;;;;;15.07;8.18;;;;;;;;;;5170318;27;20189;-77
2022/03/11 04:12:35;;;;;;;12.30;9.13;;;;;;;;;;5138916;27;20294;-76
2022/03/11 04:15:01;;;;;;;16.70;7.70;;;;;;;;;;5099964;27;20682;-78
2022/03/11 04:17:27;;;;;;;12.18;8.00;;;;;;;;;;5165495;27;20461;-76
2022/03/11 04:19:53;;;;;;;12.10;7.53;;;;;;;;;;5143525;27;20186;-78
2022/03/11 04:22:18;;;;;;;14.18;8.98;;;;;;;;;;5032392;28;20526;-77
2022/03/11 04:27:25;;;;;;;14.38;7.05;;;;;;;;;;5175925;27;20511;-78
2022/03/11 04:29:51;;;;;;;11.87;8.27;;;;;;;;;;5170742;27;20189;-76
2022/03/11 04:32:17;;;;;;;12.60;7.97;;;;;;;;;;5172231;27;20430;-78
2022/03/11 04:34:43;;;;;;;13.97;8.10;;;;;;;;;;5191506;27;20648;-77
2022/03/11 04:37:09;;;;;;;10.73;8.20;;;;;;;;;;5145513;27;20441;-76
2022/03/11 04:39:35;;;;;;;11.15;7.55;;;;;;;;;;5111285;28;20844;-79
2022/03/11 04:42:01;;;;;;;14.18;8.60;;;;;;;;;;5138242;27;20185;-76
2022/03/11 04:44:27;;;;;;;11.57;8.07;;;;;;;;;;5149886;27;20182;-75
2022/03/11 04:46:53;;;;;;;12.05;8.27;;;;;;;;;;5138781;27;21010;-78
2022/03/11 04:52:21;;;;;;;13.18;9.05;;;;;;;;;;5192464;27;20488;-78
2022/03/11 04:54:47;;;;;;;19.58;8.48;;;;;;;;;;5187609;27;20241;-75
2022/03/11 04:57:13;;;;;;;11.13;7.90;;;;;;;;;;5176780;27;20201;-76
2022/03/11 04:59:39;;;;;;;16.35;9.10;;;;;;;;;;5170454;27;20914;-78
2022/03/11 05:02:05;;;;;;;15.63;9.20;;;;;;;;;;5115612;28;20230;-75
2022/03/11 05:04:31;;;;;;;14.20;8.45;;;;;;;;;;5099218;28;20183;-79
2022/03/11 05:06:57;;;;;;;12.40;8.60;;;;;;;;;;5105696;28;20211;-78
2022/03/11 05:09:23;;;;;;;12.53;8.30;;;;;;;;;;5118725;27;20177;-78
2022/03/11 05:11:49;;;;;;;14.57;9.00;;;;;;;;;;5113948;27;20475;-78
2022/03/11 05:17:02;;;;;;;12.80;7.55;;;;;;;;;;5179426;27;20505;-76
2022/03/11 05:19:28;;;;;;;11.85;8.10;;;;;;;;;;5187242;27;20185;-78
2022/03/11 05:21:54;;;;;;;14.13;8.20;;;;;;;;;;5172263;27;20193;-77
2022/03/11 05:24:20;;;;;;;16.95;10.25;;;;;;;;;;5191428;27;20436;-76
2022/03/11 05:26:46;;;;;;;15.60;9.68;;;;;;;;;;5149181;27;20221;-79
2022/03/11 05:29:12;;;;;;;14.57;9.32;;;;;;;;;;5082266;28;20203;-78
2022/03/11 05:31:38;;;;;;;14.18;9.38;;;;;;;;;;5078154;28;20265;-76
2022/03/11 05:34:04;;;;;;;16.10;9.45;;;;;;;;;;5067740;28;20196;-78
2022/03/11 05:36:30;;;;;;;13.37;8.13;;;;;;;;;;5003923;28;20230;-78
2022/03/11 05:42:13;;;;;;;12.45;8.60;;;;;;;;;;5192925;27;20492;-76
2022/03/11 05:44:39;;;;;;;12.50;8.23;;;;;;;;;;5187737;27;20256;-77
2022/03/11 05:47:05;;;;;;;15.77;10.45;;;;;;;;;;5156173;27;20515;-79
2022/03/11 05:49:31;;;;;;;13.18;8.52;;;;;;;;;;5170536;27;20268;-79
2022/03/11 05:51:57;;;;;;;15.02;9.40;;;;;;;;;;5114333;27;20188;-76
2022/03/11 05:54:23;;;;;;;14.10;9.20;;;;;;;;;;5096837;28;20198;-76
2022/03/11 05:56:54;;;;;;;13.05;10.07;;;;;;;;;;5109726;28;20494;-78
2022/03/11 05:59:20;;;;;;;16.00;8.82;;;;;;;;;;5074792;28;20189;-76
2022/03/11 06:01:46;;;;;;;18.43;10.83;;;;;;;;;;4981810;28;20233;-77
2022/03/11 06:06:50;;;;;;;18.33;11.63;;;;;;;;;;5181289;27;20304;-77
2022/03/11 06:09:16;;;;;;;12.43;9.23;;;;;;;;;;5185583;27;20628;-78
2022/03/11 06:11:42;;;;;;;14.80;10.07;;;;;;;;;;5172113;27;20200;-77
2022/03/11 06:14:08;;;;;;;16.13;9.85;;;;;;;;;;5191436;27;20189;-78
2022/03/11 06:16:34;;;;;;;17.42;10.23;;;;;;;;;;5127022;27;20223;-77
2022/03/11 06:19:00;;;;;;;18.58;10.77;;;;;;;;;;5101585;28;20190;-78
2022/03/11 06:21:26;;;;;;;17.40;10.50;;;;;;;;;;5117291;28;20194;-78
2022/03/11 06:23:53;;;;;;;14.07;10.73;;;;;;;;;;5089724;28;20423;-77
2022/03/11 06:26:19;;;;;;;16.23;11.32;;;;;;;;;;5050129;28;21014;-77
2022/03/11 06:31:30;;;;;;;20.67;11.65;;;;;;;;;;5192750;27;20496;-77
2022/03/11 06:33:58;;;;;;;17.60;11.60;;;;;;;;;;5168494;27;20556;-78
2022/03/11 06:36:24;;;;;;;18.55;11.63;;;;;;;;;;5183846;27;20611;-79
2022/03/11 06:38:50;;;;;;;17.42;10.90;;;;;;;;;;5170042;27;20185;-77
2022/03/11 06:41:17;;;;;;;16.50;10.63;;;;;;;;;;5153592;27;20248;-79
2022/03/11 06:43:43;;;;;;;17.80;11.48;;;;;;;;;;5126750;28;20421;-77
2022/03/11 06:46:09;;;;;;;16.87;11.20;;;;;;;;;;5113031;27;20684;-76
2022/03/11 06:48:35;;;;;;;17.08;11.23;;;;;;;;;;5069850;28;20526;-78
2022/03/11 06:51:04;;;;;;;16.50;11.90;;;;;;;;;;4959059;28;20297;-78
2022/03/11 06:56:08;;;;;;;22.70;12.40;;;;;;;;;;5187203;27;20517;-77
2022/03/11 06:58:34;;;;;;;16.40;10.27;;;;;;;;;;5170597;27;20636;-76
2022/03/11 07:01:00;;;;;;;20.45;12.18;;;;;;;;;;5192134;27;20433;-75
2022/03/11 07:03:26;;;;;;;20.92;11.93;;;;;;;;;;5191358;27;20188;-78
2022/03/11 07:05:52;;;;;;;15.75;10.60;;;;;;;;;;5167152;27;20247;-76
2022/03/11 07:08:18;;;;;;;23.17;12.03;;;;;;;;;;5168278;27;20189;-77
2022/03/11 07:10:44;;;;;;;18.97;12.37;;;;;;;;;;5166805;27;20883;-78
2022/03/11 07:13:10;;;;;;;25.40;12.00;;;;;;;;;;5164340;27;20869;-78
2022/03/11 07:15:36;;;;;;;20.93;12.67;;;;;;;;;;5105562;27;20487;-77
2022/03/11 07:20:48;;;;;;;18.40;12.82;;;;;;;;;;5192806;27;20499;-78
2022/03/11 07:23:14;;;;;;;18.93;11.70;;;;;;;;;;5187321;27;20196;-78
2022/03/11 07:25:40;;;;;;;19.75;10.95;;;;;;;;;;5190117;27;20429;-77
2022/03/11 07:28:06;;;;;;;18.67;12.07;;;;;;;;;;5141764;27;20248;-77
2022/03/11 07:30:32;;;;;;;18.08;12.50;;;;;;;;;;5101156;28;20193;-78
2022/03/11 07:33:00;;;;;;;17.85;11.40;;;;;;;;;;5047211;28;20188;-75
2022/03/11 07:35:26;;;;;;;18.35;11.02;;;;;;;;;;5083460;28;20180;-77
2022/03/11 07:37:52;;;;;;;19.45;12.98;;;;;;;;;;5075689;28;20632;-78
2022/03/11 07:40:18;;;;;;;18.43;12.43;;;;;;;;;;5012593;28;20296;-75
2022/03/11 07:45:22;;;;;;;21.15;13.50;;;;;;;;;;5192644;27;20839;-76
2022/03/11 07:47:48;;;;;;;18.15;11.95;;;;;;;;;;5159256;27;20232;-78
2022/03/11 07:50:14;;;;;;;22.38;13.00;;;;;;;;;;5156566;27;20192;-78
2022/03/11 07:52:41;;;;;;;23.60;14.35;;;;;;;;;;5130724;27;20289;-77
2022/03/11 07:55:07;;;;;;;18.75;13.18;;;;;;;;;;5076495;28;20198;-77
2022/03/11 07:57:36;;;;;;;22.90;13.40;;;;;;;;;;5036787;28;20229;-78
2022/03/11 08:00:02;;;;;;;26.77;13.50;;;;;;;;;;5097519;28;20199;-77
2022/03/11 08:02:29;;;;;;;23.05;13.82;;;;;;;;;;5104209;28;20518;-77
2022/03/11 08:04:56;;;;;;;20.05;14.25;;;;;;;;;;5062735;28;20223;-78
2022/03/11 08:10:02;;;;;;;19.48;13.43;;;;;;;;;;5192856;27;20492;-76
2022/03/11 08:12:28;;;;;;;26.42;14.23;;;;;;;;;;5187678;27;20188;-77
2022/03/11 08:14:54;;;;;;;21.70;12.97;;;;;;;;;;5191836;27;20199;-78
2022/03/11 08:17:22;;;;;;;19.77;13.48;;;;;;;;;;5144381;27;20464;-78
2022/03/11 08:19:48;;;;;;;18.98;12.68;;;;;;;;;;5095929;28;20179;-77
2022/03/11 08:22:13;;;;;;;18.53;13.00;;;;;;;;;;5078041;28;21714;-78
2022/03/11 08:24:40;;;;;;;22.03;13.30;;;;;;;;;;5069371;28;20477;-76
2022/03/11 08:27:07;;;;;;;19.17;12.55;;;;;;;;;;5039880;28;20459;-77
2022/03/11 08:29:34;;;;;;;19.40;14.20;;;;;;;;;;4979797;28;20212;-78
2022/03/11 08:34:53;;;;;;;22.13;13.57;;;;;;;;;;5183871;27;20497;-78
2022/03/11 08:37:20;;;;;;;21.85;14.95;;;;;;;;;;5150936;27;20214;-77
2022/03/11 08:39:46;;;;;;;18.45;13.70;;;;;;;;;;5166130;27;20238;-79
2022/03/11 08:42:12;;;;;;;21.50;13.87;;;;;;;;;;5170386;27;20185;-79
2022/03/11 08:44:39;;;;;;;22.85;13.43;;;;;;;;;;5129286;27;20503;-77
2022/03/11 08:47:04;;;;;;;20.70;13.10;;;;;;;;;;5093837;28;20211;-77
2022/03/11 08:49:31;;;;;;;21.63;13.93;;;;;;;;;;5042407;28;20260;-76
2022/03/11 08:51:57;;;;;;;21.45;14.07;;;;;;;;;;4964887;28;20860;-78
2022/03/11 08:54:23;;;;;;;18.90;13.05;;;;;;;;;;4863569;28;20620;-78
2022/03/11 08:59:27;;;;;;;19.88;12.15;;;;;;;;;;5192598;27;20496;-75
2022/03/11 09:01:54;;;;;;;20.45;13.05;;;;;;;;;;5187731;27;20203;-78
2022/03/11 09:04:21;;;;;;;21.17;14.05;;;;;;;;;;5192180;27;20624;-79
2022/03/11 09:06:47;;;;;;;23.75;13.55;;;;;;;;;;5156409;27;20215;-77
2022/03/11 09:09:13;;;;;;;18.67;13.27;;;;;;;;;;5153885;27;20195;-75
2022/03/11 09:11:39;;;;;;;20.40;12.87;;;;;;;;;;5077894;28;20508;-78
2022/03/11 09:14:07;;;;;;;17.98;12.52;;;;;;;;;;5083369;28;20416;-77
2022/03/11 09:16:33;;;;;;;20.65;13.07;;;;;;;;;;5120862;28;20210;-76
2022/03/11 09:19:00;;;;;;;19.67;13.23;;;;;;;;;;5035545;28;20411;-78
2022/03/11 09:24:24;;;;;;;19.30;13.40;;;;;;;;;;5192902;27;20831;-77
2022/03/11 09:26:51;;;;;;;17.83;11.13;;;;;;;;;;5175995;27;20439;-78
2022/03/11 09:29:17;;;;;;;25.63;14.20;;;;;;;;;;5171170;27;20397;-76
2022/03/11 09:31:43;;;;;;;18.23;12.57;;;;;;;;;;5170324;27;20479;-78
2022/03/11 09:34:09;;;;;;;19.60;13.90;;;;;;;;;;5161507;27;20801;-78
2022/03/11 09:36:35;;;;;;;20.87;14.60;;;;;;;;;;5163060;27;20481;-77
2022/03/11 09:39:01;;;;;;;17.13;12.53;;;;;;;;;;5135046;27;20424;-77
2022/03/11 09:41:27;;;;;;;16.37;13.90;;;;;;;;;;5123185;27;20494;-78
2022/03/11 09:43:55;;;;;;;20.30;12.20;;;;;;;;;;5097409;28;20475;-77
2022/03/11 09:48:58;;;;;;;17.73;12.47;;;;;;;;;;5192827;27;20488;-78
2022/03/11 09:51:24;;;;;;;19.30;13.93;;;;;;;;;;5187806;27;20396;-79
2022/03/11 09:53:51;;;;;;;17.13;12.50;;;;;;;;;;5174576;27;20389;-79
2022/03/11 09:56:19;;;;;;;21.93;13.53;;;;;;;;;;5157786;27;20456;-78
2022/03/11 09:58:45;;;;;;;17.53;12.30;;;;;;;;;;5140563;27;20403;-77
2022/03/11 10:01:11;;;;;;;20.90;14.07;;;;;;;;;;5138603;27;20798;-76
2022/03/11 10:03:37;;;;;;;18.23;13.07;;;;;;;;;;5030281;28;20465;-77
2022/03/11 10:06:03;;;;;;;17.23;12.53;;;;;;;;;;5060717;28;20864;-78
2022/03/11 10:08:31;;;;;;;23.23;14.37;;;;;;;;;;5058336;28;20479;-78
2022/03/11 10:14:09;;;;;;;17.20;12.13;;;;;;;;;;5192627;27;20488;-77
2022/03/11 10:16:37;;;;;;;18.73;12.90;;;;;;;;;;5177983;27;20442;-76
2022/03/11 10:19:02;;;;;;;18.40;13.33;;;;;;;;;;5151682;27;20401;-77
2022/03/11 10:21:55;;;;;;;17.53;12.90;;;;;;;;;;5170341;27;20421;-77
2022/03/11 10:24:22;;;;;;;15.43;12.30;;;;;;;;;;5095767;28;20932;-75
2022/03/11 10:26:48;;;;;;;18.00;14.10;;;;;;;;;;5054059;28;20457;-76
2022/03/11 10:29:16;;;;;;;18.27;14.00;;;;;;;;;;5072989;28;20483;-75
2022/03/11 10:31:43;;;;;;;19.90;13.10;;;;;;;;;;5098736;28;20486;-77
2022/03/11 10:34:15;;;;;;;18.23;13.80;;;;;;;;;;5009083;28;20508;-79
2022/03/11 10:39:52;;;;;;;14.67;11.80;;;;;;;;;;5192775;27;20838;-79
2022/03/11 10:42:25;;;;;;;18.10;13.33;;;;;;;;;;5187653;27;20428;-80
2022/03/11 10:44:56;;;;;;;15.70;12.33;;;;;;;;;;5192302;27;20853;-79
2022/03/11 10:47:23;;;;;;;18.17;13.50;;;;;;;;;;5148777;27;20444;-80
2022/03/11 10:49:50;;;;;;;17.17;12.90;;;;;;;;;;5118451;28;20495;-80
2022/03/11 10:52:27;;;;;;;18.63;13.47;;;;;;;;;;5123558;28;20416;-79
2022/03/11 10:54:53;;;;;;;17.17;13.97;;;;;;;;;;5055154;28;20422;-78
2022/03/11 10:57:21;;;;;;;16.93;12.93;;;;;;;;;;5021035;28;20934;-77
2022/03/11 10:59:47;;;;;;;19.00;13.03;;;;;;;;;;4930242;28;20489;-77
2022/03/11 11:04:18;;;;;;;16.27;13.00;;;;;;;;;;5192976;27;20480;-75
2022/03/11 11:06:45;;;;;;;15.50;11.40;;;;;;;;;;5176884;27;20442;-80
2022/03/11 11:09:11;;;;;;;18.57;14.00;;;;;;;;;;5171634;27;20426;-79
2022/03/11 11:11:37;;;;;;;19.20;14.23;;;;;;;;;;5141621;27;20432;-79
2022/03/11 11:14:06;;;;;;;18.93;13.80;;;;;;;;;;5106228;28;20423;-79
2022/03/11 11:16:38;;;;;;;18.00;13.13;;;;;;;;;;5105008;28;20451;-79
2022/03/11 11:19:06;;;;;;;17.27;12.83;;;;;;;;;;5029808;28;20434;-77
2022/03/11 11:21:35;;;;;;;18.33;13.60;;;;;;;;;;4945235;28;20511;-79
2022/03/11 11:24:01;;;;;;;15.30;12.80;;;;;;;;;;4866907;29;20484;-78
2022/03/11 11:29:00;;;;;;;15.40;13.43;;;;;;;;;;5193027;27;20294;-77
2022/03/11 11:31:26;;;;;;;14.20;12.77;;;;;;;;;;5188079;27;20985;-77
2022/03/11 11:33:52;;;;;;;21.90;13.47;;;;;;;;;;5192097;27;20508;-76
2022/03/11 11:36:38;;;;;;;17.03;12.70;;;;;;;;;;5151114;27;20811;-77
2022/03/11 11:39:06;;;;;;;16.00;12.33;;;;;;;;;;5099539;28;20576;-77
2022/03/11 11:41:33;;;;;;;17.80;13.37;;;;;;;;;;5083381;28;20431;-79
2022/03/11 11:44:03;;;;;;;15.17;12.50;;;;;;;;;;5028509;28;20788;-77
2022/03/11 11:46:30;;;;;;;16.23;12.67;;;;;;;;;;5002918;28;20449;-79
2022/03/11 11:48:58;;;;;;;17.80;12.37;;;;;;;;;;4914519;28;20496;-78
2022/03/11 11:53:56;;;;;;;16.60;12.63;;;;;;;;;;5192927;27;20290;-75
2022/03/11 11:56:28;;;;;;;17.80;12.50;;;;;;;;;;5180166;27;20443;-77
2022/03/11 11:58:58;;;;;;;13.97;11.93;;;;;;;;;;5171147;27;20409;-75
2022/03/11 12:01:39;;;;;;;15.23;12.03;;;;;;;;;;5170315;27;21253;-75
2022/03/11 12:04:24;;;;;;;16.63;12.73;;;;;;;;;;5122363;27;20780;-75
2022/03/11 12:06:55;;;;;;;16.43;12.50;;;;;;;;;;5029220;28;20448;-75
2022/03/11 12:09:42;;;;;;;15.73;13.17;;;;;;;;;;5010008;28;20480;-76
2022/03/11 12:12:20;;;;;;;18.13;13.20;;;;;;;;;;4858560;29;20555;-75
2022/03/11 12:17:40;;;;;;;16.57;11.83;;;;;;;;;;5164633;27;20507;-75
2022/03/11 12:20:25;;;;;;;14.10;11.77;;;;;;;;;;5163371;27;20434;-74
2022/03/11 12:22:52;;;;;;;15.13;12.77;;;;;;;;;;5132721;27;20442;-75
2022/03/11 12:25:21;;;;;;;15.00;12.07;;;;;;;;;;5149265;27;20415;-77
2022/03/11 12:28:00;;;;;;;16.03;12.20;;;;;;;;;;5125501;27;20471;-79
2022/03/11 12:30:30;;;;;;;14.67;11.47;;;;;;;;;;5095301;28;20496;-79
2022/03/11 12:32:59;;;;;;;15.23;11.67;;;;;;;;;;4977047;28;20904;-78
2022/03/11 12:35:25;;;;;;;12.80;11.47;;;;;;;;;;4904267;29;20470;-78
2022/03/11 12:37:51;;;;;;;16.80;11.90;;;;;;;;;;4837763;29;20462;-79
2022/03/11 12:42:36;;;;;;;17.03;12.40;;;;;;;;;;5193047;27;20481;-77
2022/03/11 12:45:03;;;;;;;17.20;11.50;;;;;;;;;;5187581;27;20429;-74
2022/03/11 12:47:35;;;;;;;22.53;12.63;;;;;;;;;;5174732;27;20443;-78
2022/03/11 12:50:01;;;;;;;15.37;11.90;;;;;;;;;;5151620;27;20435;-75
2022/03/11 12:52:35;;;;;;;16.87;12.20;;;;;;;;;;5157932;27;20440;-77
2022/03/11 12:55:01;;;;;;;19.40;11.70;;;;;;;;;;5145155;27;20418;-78
2022/03/11 12:57:27;;;;;;;13.73;11.50;;;;;;;;;;5165092;27;20475;-78
2022/03/11 12:59:53;;;;;;;14.77;11.80;;;;;;;;;;5124951;27;20428;-76
2022/03/11 13:02:19;;;;;;;17.07;11.33;;;;;;;;;;5055441;28;20486;-78
2022/03/11 13:07:17;;;;;;;17.63;11.70;;;;;;;;;;5177280;27;20501;-77
2022/03/11 13:09:43;;;;;;;19.80;12.40;;;;;;;;;;5187496;27;20479;-78
2022/03/11 13:12:27;;;;;;;14.73;11.20;;;;;;;;;;5169683;27;20556;-79
2022/03/11 13:15:09;;;;;;;14.60;12.53;;;;;;;;;;5132687;27;20920;-79
2022/03/11 13:17:45;;;;;;;14.43;11.53;;;;;;;;;;5082912;28;20451;-79
2022/03/11 13:20:27;;;;;;;14.70;12.13;;;;;;;;;;5005893;28;20799;-79
2022/03/11 13:22:53;;;;;;;15.90;11.40;;;;;;;;;;4924588;28;20434;-78
2022/03/11 13:25:23;;;;;;;15.93;11.93;;;;;;;;;;4908867;29;20499;-76
2022/03/11 13:27:49;;;;;;;14.30;11.33;;;;;;;;;;4774914;29;20469;-77
2022/03/11 13:31:43;;;;;;;14.90;12.50;;;;;;;;;;5192969;27;21027;-77
2022/03/11 13:34:10;;;;;;;17.60;12.23;;;;;;;;;;5187914;27;20418;-77
2022/03/11 13:36:39;;;;;;;19.83;13.13;;;;;;;;;;5175955;27;20470;-77
2022/03/11 13:39:18;;;;;;;13.70;12.10;;;;;;;;;;5170311;27;20422;-76
2022/03/11 13:41:48;;;;;;;13.97;11.80;;;;;;;;;;5084471;28;20522;-78
2022/03/11 13:44:14;;;;;;;13.23;11.73;;;;;;;;;;5069734;28;20530;-78
2022/03/11 13:46:50;;;;;;;12.70;10.97;;;;;;;;;;5099838;28;20460;-78
2022/03/11 13:49:19;;;;;;;17.90;12.97;;;;;;;;;;5016293;28;20426;-77
2022/03/11 13:51:52;;;;;;;13.70;11.90;;;;;;;;;;4920624;29;20865;-77
2022/03/11 13:56:24;;;;;;;13.50;11.40;;;;;;;;;;5185623;27;20840;-78
2022/03/11 13:58:50;;;;;;;16.63;11.10;;;;;;;;;;5189044;27;20422;-78
2022/03/11 14:01:16;;;;;;;15.73;12.13;;;;;;;;;;5152036;27;20484;-76
2022/03/11 14:03:43;;;;;;;17.07;11.00;;;;;;;;;;5166745;27;20423;-76
2022/03/11 14:06:09;;;;;;;15.80;12.50;;;;;;;;;;5113212;28;20454;-78
2022/03/11 14:08:35;;;;;;;13.70;10.10;;;;;;;;;;5101266;28;20501;-77
2022/03/11 14:11:05;;;;;;;16.50;11.40;;;;;;;;;;5110604;27;20431;-77
2022/03/11 14:13:36;;;;;;;15.10;11.93;;;;;;;;;;5068641;28;20488;-78
2022/03/11 14:16:10;;;;;;;17.37;12.30;;;;;;;;;;4929345;28;20490;-80
2022/03/11 14:19:53;;;;;;;16.40;11.60;;;;;;;;;;5193451;27;20823;-79
2022/03/11 14:22:19;;;;;;;14.70;11.40;;;;;;;;;;5188945;27;20418;-80
2022/03/11 14:24:45;;;;;;;13.03;11.47;;;;;;;;;;5192816;27;20817;-78
2022/03/11 14:27:15;;;;;;;15.17;11.90;;;;;;;;;;5168440;27;20471;-77
2022/03/11 14:29:41;;;;;;;15.67;12.10;;;;;;;;;;5109005;27;20804;-79
2022/03/11 14:32:07;;;;;;;14.90;11.87;;;;;;;;;;5073328;28;20520;-77
2022/03/11 14:34:33;;;;;;;13.40;12.00;;;;;;;;;;5061023;28;20438;-76
2022/03/11 14:37:00;;;;;;;15.40;12.30;;;;;;;;;;5038738;28;21024;-80
2022/03/11 14:39:27;;;;;;;16.17;12.57;;;;;;;;;;4927520;28;20910;-78
2022/03/11 14:45:07;;;;;;;15.43;11.47;;;;;;;;;;5193094;27;20469;-79
2022/03/11 14:47:33;;;;;;;13.90;11.53;;;;;;;;;;5170250;27;20434;-77
2022/03/11 14:49:59;;;;;;;15.77;13.10;;;;;;;;;;5167584;27;20538;-79
2022/03/11 14:52:26;;;;;;;15.33;12.67;;;;;;;;;;5149504;27;20422;-76
2022/03/11 14:54:52;;;;;;;17.10;12.83;;;;;;;;;;5138738;27;20418;-76
2022/03/11 14:57:18;;;;;;;22.90;12.93;;;;;;;;;;5134113;27;20443;-78
2022/03/11 14:59:44;;;;;;;16.20;11.93;;;;;;;;;;5127929;27;20435;-78
2022/03/11 15:02:10;;;;;;;14.73;11.13;;;;;;;;;;5009695;28;20436;-79
2022/03/11 15:04:36;;;;;;;15.00;12.53;;;;;;;;;;4934479;28;20499;-79
2022/03/11 15:09:19;;;;;;;20.70;12.80;;;;;;;;;;5151225;27;20483;-77
2022/03/11 15:11:48;;;;;;;15.10;11.83;;;;;;;;;;5146119;27;20785;-79
2022/03/11 15:14:16;;;;;;;23.67;14.70;;;;;;;;;;5149964;27;20438;-79
2022/03/11 15:16:42;;;;;;;16.73;11.80;;;;;;;;;;5139261;27;20452;-78
2022/03/11 15:19:08;;;;;;;16.20;12.50;;;;;;;;;;5092108;28;20428;-77
2022/03/11 15:21:36;;;;;;;17.43;13.30;;;;;;;;;;5053703;28;20742;-76
2022/03/11 15:24:01;;;;;;;17.30;12.43;;;;;;;;;;5060010;28;20939;-79
2022/03/11 15:26:27;;;;;;;15.80;11.83;;;;;;;;;;5096145;28;25271;-80
2022/03/11 15:28:53;;;;;;;13.53;12.13;;;;;;;;;;5060832;28;20475;-74
2022/03/11 15:32:49;;;;;;;14.63;11.80;;;;;;;;;;5192899;27;20469;-74
2022/03/11 15:35:15;;;;;;;19.37;12.80;;;;;;;;;;5168840;27;20430;-74
2022/03/11 15:37:41;;;;;;;14.50;11.50;;;;;;;;;;5173071;27;20453;-73
2022/03/11 15:40:07;;;;;;;16.87;11.87;;;;;;;;;;5169697;27;20454;-75
2022/03/11 15:42:33;;;;;;;16.13;12.60;;;;;;;;;;5158670;27;20432;-73
2022/03/11 15:44:59;;;;;;;19.07;11.93;;;;;;;;;;5122242;28;20428;-74
2022/03/11 15:47:25;;;;;;;15.50;11.27;;;;;;;;;;5123831;28;20448;-75
2022/03/11 15:49:51;;;;;;;15.73;11.40;;;;;;;;;;5138257;27;20449;-74
2022/03/11 15:52:17;;;;;;;14.87;12.97;;;;;;;;;;5008303;27;20475;-73
2022/03/11 15:57:17;;;;;;;13.37;10.80;;;;;;;;;;5177205;27;20749;-74
2022/03/11 15:59:43;;;;;;;15.90;11.87;;;;;;;;;;5187630;27;20421;-75